Aérodrome :
LOGIN :

S'inscrire | Disclaimer

   EN    FR    IT 

 










Légende :    VFR   VFR Marginal   IFR   IFR Intensif   IFR Très Intensif
Visi : 
Plafond : 
>= 8 km
>= 3000ft
5 à 8 km
1000 à 3000 ft
1500m à 5 km
500 à 1000 ft
800 à 1500m
200 à 500 ft
< 800m
< 200 ft
Symboles :   Orages  Brouillard  Fortes neiges  Fortes précipitations  Vent > 20 kt
SIGMETs :   Divers  Orages  Givrage  Turbulence  Onde Orograph.  Cendres Volcan.







- Altitude de l'aérodrome : 309 ft
- Code IATA : FNI
- Voir les cartes d'approche


LFTW - Nîmes Garons

DERNIER METAR :
  • 280030Z AUTO 31010KT 260V350 CAVOK 07/M02 Q1014

METARs EXPIRÉS :
  • 280000Z AUTO 33013KT 290V350 CAVOK 08/M01 Q1014
  • 272330Z AUTO 31009KT 270V350 CAVOK 08/M01 Q1014
  • 272300Z AUTO 32009KT 290V010 CAVOK 08/M01 Q1014
  • 272230Z AUTO 33008KT 290V360 CAVOK 07/M01 Q1014
  • 272200Z AUTO 33007KT 300V360 CAVOK 07/M00 Q1014
  • 272130Z AUTO 34008KT 310V010 CAVOK 07/M00 Q1014

TAF TAF LFTW
Valide du 27 à 15h jusqu'au 28 à 15h UTC


271400Z 2715/2815 33012KT CAVOK
BECMG 2808/2810 34015G25KT NSC
Pas de NOTAMs connus pour ce terrain.
2 SIGMETs publiés pour la FIR Marseille (LFMM) :
 
Turbulence forte
LFMM SIGMET 3 VALID 272300/280300 LFPW
LFMM MARSEILLE FIR/UIR SEV TURB FCST WI N4115 E00430 - N4200 E00430 - N4215 E00230 - N4330 E00245 - N4415 E00445 - N4300 E00945 - N4115 E00945 SFC/FL060 STNR NC=
Onde orographique forte
LFMM SIGMET 2 VALID 272300/280300 LFPW
LFMM MARSEILLE FIR/UIR SEV MTW FCST WI N4315 E00930 - N4315 E00945 - N4115 E00945 - N4115 E00845 - N4230 E00815 FL060/240 STNR INTSF=



MET'MAP, la Météo Aéronautique d'un coup d'oeil ! - Copyright ORBIFLY Décembre 2007 - Disclaimer

ORBIFLY MET'MAP TEAM :

Programmation & Développement : Alexandra Zaïnal
Conception & Développement : Baudouin d'Aumeries
Co-Programmation & Développement : Marc-Olivier Méhu
Soutien technique & logistique : Manuel Goepfert

Contact : metmap@orbifly.com




SOURCES & CREDITS :

   NOAA